sensor_id;sensor_type;location;lat;lon;timestamp;P1;durP1;ratioP1;P2;durP2;ratioP2
21018;SDS011;10667;51.056;3.732;2022-10-13T00:01:44;16.77;;;9.40;;
21018;SDS011;10667;51.056;3.732;2022-10-13T00:04:09;16.50;;;9.43;;
21018;SDS011;10667;51.056;3.732;2022-10-13T00:06:35;29.52;;;9.60;;
21018;SDS011;10667;51.056;3.732;2022-10-13T00:09:01;18.75;;;10.43;;
21018;SDS011;10667;51.056;3.732;2022-10-13T00:11:27;17.10;;;9.43;;
21018;SDS011;10667;51.056;3.732;2022-10-13T00:13:55;18.02;;;9.95;;
21018;SDS011;10667;51.056;3.732;2022-10-13T00:16:23;14.93;;;9.57;;
21018;SDS011;10667;51.056;3.732;2022-10-13T00:18:49;21.08;;;11.43;;
21018;SDS011;10667;51.056;3.732;2022-10-13T00:21:16;19.67;;;9.88;;
21018;SDS011;10667;51.056;3.732;2022-10-13T00:23:44;21.08;;;10.88;;
21018;SDS011;10667;51.056;3.732;2022-10-13T00:26:11;21.02;;;10.85;;
21018;SDS011;10667;51.056;3.732;2022-10-13T00:28:38;21.95;;;10.98;;
21018;SDS011;10667;51.056;3.732;2022-10-13T00:31:18;21.88;;;10.30;;
21018;SDS011;10667;51.056;3.732;2022-10-13T00:33:46;19.23;;;10.27;;
21018;SDS011;10667;51.056;3.732;2022-10-13T00:36:13;19.73;;;10.00;;
21018;SDS011;10667;51.056;3.732;2022-10-13T00:38:39;19.65;;;10.13;;
21018;SDS011;10667;51.056;3.732;2022-10-13T00:41:05;18.00;;;10.88;;
21018;SDS011;10667;51.056;3.732;2022-10-13T00:46:17;17.70;;;10.52;;
21018;SDS011;10667;51.056;3.732;2022-10-13T00:48:44;18.48;;;10.07;;
21018;SDS011;10667;51.056;3.732;2022-10-13T00:51:12;16.95;;;10.05;;
21018;SDS011;10667;51.056;3.732;2022-10-13T00:53:40;17.05;;;10.60;;
21018;SDS011;10667;51.056;3.732;2022-10-13T00:56:08;19.42;;;10.43;;
21018;SDS011;10667;51.056;3.732;2022-10-13T00:58:35;19.00;;;10.93;;
21018;SDS011;10667;51.056;3.732;2022-10-13T01:01:03;19.45;;;10.48;;
21018;SDS011;10667;51.056;3.732;2022-10-13T01:03:30;16.85;;;10.77;;
21018;SDS011;10667;51.056;3.732;2022-10-13T01:05:57;19.85;;;10.48;;
21018;SDS011;10667;51.056;3.732;2022-10-13T01:08:25;18.48;;;10.70;;
21018;SDS011;10667;51.056;3.732;2022-10-13T01:16:00;22.08;;;11.15;;
21018;SDS011;10667;51.056;3.732;2022-10-13T01:18:39;21.42;;;11.05;;
21018;SDS011;10667;51.056;3.732;2022-10-13T01:35:13;28.98;;;12.07;;
21018;SDS011;10667;51.056;3.732;2022-10-13T01:37:46;19.35;;;11.15;;
21018;SDS011;10667;51.056;3.732;2022-10-13T01:42:47;20.48;;;11.13;;
21018;SDS011;10667;51.056;3.732;2022-10-13T01:45:14;17.80;;;9.85;;
21018;SDS011;10667;51.056;3.732;2022-10-13T01:47:43;24.00;;;10.88;;
21018;SDS011;10667;51.056;3.732;2022-10-13T01:50:11;15.15;;;10.35;;
21018;SDS011;10667;51.056;3.732;2022-10-13T01:52:39;16.15;;;10.27;;
21018;SDS011;10667;51.056;3.732;2022-10-13T01:55:07;23.20;;;10.80;;
21018;SDS011;10667;51.056;3.732;2022-10-13T01:57:36;20.02;;;10.73;;
21018;SDS011;10667;51.056;3.732;2022-10-13T02:00:15;21.33;;;11.55;;
21018;SDS011;10667;51.056;3.732;2022-10-13T02:05:44;20.60;;;11.25;;
21018;SDS011;10667;51.056;3.732;2022-10-13T02:08:37;23.65;;;11.35;;
21018;SDS011;10667;51.056;3.732;2022-10-13T02:11:14;20.42;;;11.00;;
21018;SDS011;10667;51.056;3.732;2022-10-13T02:13:44;18.65;;;11.13;;
21018;SDS011;10667;51.056;3.732;2022-10-13T02:16:18;20.60;;;11.70;;
21018;SDS011;10667;51.056;3.732;2022-10-13T02:18:47;14.75;;;10.45;;
21018;SDS011;10667;51.056;3.732;2022-10-13T02:21:14;17.63;;;11.02;;
21018;SDS011;10667;51.056;3.732;2022-10-13T02:23:41;21.27;;;10.95;;
21018;SDS011;10667;51.056;3.732;2022-10-13T02:26:08;23.70;;;11.40;;
21018;SDS011;10667;51.056;3.732;2022-10-13T02:28:38;17.55;;;10.05;;
21018;SDS011;10667;51.056;3.732;2022-10-13T02:31:04;15.63;;;10.32;;
21018;SDS011;10667;51.056;3.732;2022-10-13T02:33:32;18.92;;;10.65;;
21018;SDS011;10667;51.056;3.732;2022-10-13T02:35:58;21.35;;;11.40;;
21018;SDS011;10667;51.056;3.732;2022-10-13T02:38:24;23.25;;;11.15;;
21018;SDS011;10667;51.056;3.732;2022-10-13T02:40:50;18.45;;;10.50;;
21018;SDS011;10667;51.056;3.732;2022-10-13T02:43:15;19.73;;;11.15;;
21018;SDS011;10667;51.056;3.732;2022-10-13T02:45:41;20.42;;;11.60;;
21018;SDS011;10667;51.056;3.732;2022-10-13T02:48:07;16.40;;;10.73;;
21018;SDS011;10667;51.056;3.732;2022-10-13T02:50:33;18.08;;;11.35;;
21018;SDS011;10667;51.056;3.732;2022-10-13T02:52:59;18.27;;;10.23;;
21018;SDS011;10667;51.056;3.732;2022-10-13T02:55:24;17.10;;;10.55;;
21018;SDS011;10667;51.056;3.732;2022-10-13T02:57:50;16.50;;;10.20;;
21018;SDS011;10667;51.056;3.732;2022-10-13T03:00:16;14.98;;;10.05;;
21018;SDS011;10667;51.056;3.732;2022-10-13T03:02:42;17.30;;;10.27;;
21018;SDS011;10667;51.056;3.732;2022-10-13T03:05:08;15.52;;;9.13;;
21018;SDS011;10667;51.056;3.732;2022-10-13T03:07:34;18.17;;;10.05;;
21018;SDS011;10667;51.056;3.732;2022-10-13T03:10:00;17.85;;;9.65;;
21018;SDS011;10667;51.056;3.732;2022-10-13T03:12:26;18.83;;;10.20;;
21018;SDS011;10667;51.056;3.732;2022-10-13T03:14:51;19.42;;;10.70;;
21018;SDS011;10667;51.056;3.732;2022-10-13T03:17:17;19.70;;;10.48;;
21018;SDS011;10667;51.056;3.732;2022-10-13T03:19:43;20.15;;;10.63;;
21018;SDS011;10667;51.056;3.732;2022-10-13T03:22:09;19.27;;;10.25;;
21018;SDS011;10667;51.056;3.732;2022-10-13T03:24:38;22.23;;;10.45;;
21018;SDS011;10667;51.056;3.732;2022-10-13T03:27:04;21.77;;;10.15;;
21018;SDS011;10667;51.056;3.732;2022-10-13T03:29:29;17.77;;;11.52;;
21018;SDS011;10667;51.056;3.732;2022-10-13T03:31:55;18.17;;;11.18;;
21018;SDS011;10667;51.056;3.732;2022-10-13T03:34:21;17.33;;;10.20;;
21018;SDS011;10667;51.056;3.732;2022-10-13T03:36:46;17.38;;;10.32;;
21018;SDS011;10667;51.056;3.732;2022-10-13T03:39:12;16.17;;;10.27;;
21018;SDS011;10667;51.056;3.732;2022-10-13T03:41:38;22.33;;;11.02;;
21018;SDS011;10667;51.056;3.732;2022-10-13T03:44:04;18.85;;;10.35;;
21018;SDS011;10667;51.056;3.732;2022-10-13T03:46:31;16.67;;;9.77;;
21018;SDS011;10667;51.056;3.732;2022-10-13T03:48:57;17.77;;;10.05;;
21018;SDS011;10667;51.056;3.732;2022-10-13T03:51:23;20.08;;;10.40;;
21018;SDS011;10667;51.056;3.732;2022-10-13T03:53:49;19.80;;;10.77;;
21018;SDS011;10667;51.056;3.732;2022-10-13T03:56:17;18.30;;;9.77;;
21018;SDS011;10667;51.056;3.732;2022-10-13T03:58:45;16.13;;;10.35;;
21018;SDS011;10667;51.056;3.732;2022-10-13T04:01:11;16.90;;;10.35;;
21018;SDS011;10667;51.056;3.732;2022-10-13T04:03:38;16.92;;;10.30;;
21018;SDS011;10667;51.056;3.732;2022-10-13T04:06:04;19.58;;;10.48;;
21018;SDS011;10667;51.056;3.732;2022-10-13T04:08:30;17.83;;;10.32;;
21018;SDS011;10667;51.056;3.732;2022-10-13T04:11:04;22.92;;;10.35;;
21018;SDS011;10667;51.056;3.732;2022-10-13T04:13:35;20.20;;;11.20;;
21018;SDS011;10667;51.056;3.732;2022-10-13T04:16:04;19.27;;;10.32;;
21018;SDS011;10667;51.056;3.732;2022-10-13T04:18:36;19.63;;;9.77;;
21018;SDS011;10667;51.056;3.732;2022-10-13T04:21:06;19.13;;;10.75;;
21018;SDS011;10667;51.056;3.732;2022-10-13T04:23:37;17.48;;;9.88;;
21018;SDS011;10667;51.056;3.732;2022-10-13T04:26:04;22.80;;;10.85;;
21018;SDS011;10667;51.056;3.732;2022-10-13T04:28:30;18.33;;;10.77;;
21018;SDS011;10667;51.056;3.732;2022-10-13T04:31:01;18.77;;;10.60;;
21018;SDS011;10667;51.056;3.732;2022-10-13T04:33:28;19.42;;;10.35;;
21018;SDS011;10667;51.056;3.732;2022-10-13T04:35:53;24.92;;;10.23;;
21018;SDS011;10667;51.056;3.732;2022-10-13T04:38:19;22.05;;;10.90;;
21018;SDS011;10667;51.056;3.732;2022-10-13T04:40:45;18.92;;;10.80;;
21018;SDS011;10667;51.056;3.732;2022-10-13T04:43:10;23.52;;;11.38;;
21018;SDS011;10667;51.056;3.732;2022-10-13T04:45:36;22.50;;;11.20;;
21018;SDS011;10667;51.056;3.732;2022-10-13T04:48:02;21.40;;;10.98;;
21018;SDS011;10667;51.056;3.732;2022-10-13T04:50:28;19.30;;;10.50;;
21018;SDS011;10667;51.056;3.732;2022-10-13T04:52:53;18.17;;;11.23;;
21018;SDS011;10667;51.056;3.732;2022-10-13T04:55:19;18.73;;;10.70;;
21018;SDS011;10667;51.056;3.732;2022-10-13T04:57:44;18.77;;;11.05;;
21018;SDS011;10667;51.056;3.732;2022-10-13T05:00:10;21.55;;;11.30;;
21018;SDS011;10667;51.056;3.732;2022-10-13T05:02:36;23.63;;;11.82;;
21018;SDS011;10667;51.056;3.732;2022-10-13T05:05:02;19.67;;;10.85;;
21018;SDS011;10667;51.056;3.732;2022-10-13T05:07:29;19.92;;;10.55;;
21018;SDS011;10667;51.056;3.732;2022-10-13T05:09:56;21.05;;;11.15;;
21018;SDS011;10667;51.056;3.732;2022-10-13T05:12:21;27.35;;;11.27;;
21018;SDS011;10667;51.056;3.732;2022-10-13T05:14:47;25.27;;;11.10;;
21018;SDS011;10667;51.056;3.732;2022-10-13T05:17:13;16.85;;;11.48;;
21018;SDS011;10667;51.056;3.732;2022-10-13T05:19:39;18.60;;;11.35;;
21018;SDS011;10667;51.056;3.732;2022-10-13T05:22:04;22.85;;;11.98;;
21018;SDS011;10667;51.056;3.732;2022-10-13T05:24:30;26.40;;;12.88;;
21018;SDS011;10667;51.056;3.732;2022-10-13T05:27:07;26.02;;;12.65;;
21018;SDS011;10667;51.056;3.732;2022-10-13T05:29:34;20.90;;;12.30;;
21018;SDS011;10667;51.056;3.732;2022-10-13T05:32:00;22.98;;;12.88;;
21018;SDS011;10667;51.056;3.732;2022-10-13T05:34:26;24.70;;;12.70;;
21018;SDS011;10667;51.056;3.732;2022-10-13T05:36:52;20.95;;;12.25;;
21018;SDS011;10667;51.056;3.732;2022-10-13T05:39:17;24.05;;;12.45;;
21018;SDS011;10667;51.056;3.732;2022-10-13T05:41:43;19.38;;;12.48;;
21018;SDS011;10667;51.056;3.732;2022-10-13T05:44:09;23.55;;;12.85;;
21018;SDS011;10667;51.056;3.732;2022-10-13T05:46:34;29.13;;;13.98;;
21018;SDS011;10667;51.056;3.732;2022-10-13T05:49:00;27.05;;;13.35;;
21018;SDS011;10667;51.056;3.732;2022-10-13T05:51:31;25.55;;;13.13;;
21018;SDS011;10667;51.056;3.732;2022-10-13T05:54:05;27.35;;;13.60;;
21018;SDS011;10667;51.056;3.732;2022-10-13T05:56:39;23.08;;;12.77;;
21018;SDS011;10667;51.056;3.732;2022-10-13T05:59:12;26.20;;;14.25;;
21018;SDS011;10667;51.056;3.732;2022-10-13T06:01:42;27.08;;;14.07;;
21018;SDS011;10667;51.056;3.732;2022-10-13T06:04:09;25.95;;;12.88;;
21018;SDS011;10667;51.056;3.732;2022-10-13T06:06:43;30.20;;;13.60;;
21018;SDS011;10667;51.056;3.732;2022-10-13T06:09:11;27.38;;;13.80;;
21018;SDS011;10667;51.056;3.732;2022-10-13T06:11:36;24.55;;;14.23;;
21018;SDS011;10667;51.056;3.732;2022-10-13T06:14:02;27.33;;;14.60;;
21018;SDS011;10667;51.056;3.732;2022-10-13T06:16:28;26.50;;;13.70;;
21018;SDS011;10667;51.056;3.732;2022-10-13T06:18:53;28.38;;;13.57;;
21018;SDS011;10667;51.056;3.732;2022-10-13T06:21:19;27.17;;;13.82;;
21018;SDS011;10667;51.056;3.732;2022-10-13T06:23:45;27.98;;;14.07;;
21018;SDS011;10667;51.056;3.732;2022-10-13T06:26:10;23.88;;;13.35;;
21018;SDS011;10667;51.056;3.732;2022-10-13T06:28:36;28.67;;;13.90;;
21018;SDS011;10667;51.056;3.732;2022-10-13T06:31:03;31.52;;;15.43;;
21018;SDS011;10667;51.056;3.732;2022-10-13T06:33:30;31.23;;;13.75;;
21018;SDS011;10667;51.056;3.732;2022-10-13T06:35:59;27.50;;;14.52;;
21018;SDS011;10667;51.056;3.732;2022-10-13T06:38:26;27.52;;;13.90;;
21018;SDS011;10667;51.056;3.732;2022-10-13T06:40:52;28.15;;;14.00;;
21018;SDS011;10667;51.056;3.732;2022-10-13T06:43:17;23.90;;;14.40;;
21018;SDS011;10667;51.056;3.732;2022-10-13T06:45:43;26.30;;;14.10;;
21018;SDS011;10667;51.056;3.732;2022-10-13T06:48:09;28.85;;;15.27;;
21018;SDS011;10667;51.056;3.732;2022-10-13T06:50:34;32.75;;;15.65;;
21018;SDS011;10667;51.056;3.732;2022-10-13T06:53:00;26.88;;;15.93;;
21018;SDS011;10667;51.056;3.732;2022-10-13T06:55:26;29.75;;;16.55;;
21018;SDS011;10667;51.056;3.732;2022-10-13T06:57:51;28.80;;;15.95;;
21018;SDS011;10667;51.056;3.732;2022-10-13T07:00:17;27.13;;;15.65;;
21018;SDS011;10667;51.056;3.732;2022-10-13T07:02:43;33.03;;;16.83;;
21018;SDS011;10667;51.056;3.732;2022-10-13T07:05:08;26.00;;;15.65;;
21018;SDS011;10667;51.056;3.732;2022-10-13T07:07:34;30.42;;;15.77;;
21018;SDS011;10667;51.056;3.732;2022-10-13T07:09:59;26.67;;;15.40;;
21018;SDS011;10667;51.056;3.732;2022-10-13T07:12:25;29.55;;;17.02;;
21018;SDS011;10667;51.056;3.732;2022-10-13T07:14:51;31.30;;;16.40;;
21018;SDS011;10667;51.056;3.732;2022-10-13T07:17:16;30.50;;;15.70;;
21018;SDS011;10667;51.056;3.732;2022-10-13T07:19:42;30.35;;;16.55;;
21018;SDS011;10667;51.056;3.732;2022-10-13T07:22:08;26.52;;;15.55;;
21018;SDS011;10667;51.056;3.732;2022-10-13T07:24:33;31.27;;;15.48;;
21018;SDS011;10667;51.056;3.732;2022-10-13T07:26:59;23.63;;;14.80;;
21018;SDS011;10667;51.056;3.732;2022-10-13T07:29:25;25.08;;;15.68;;
21018;SDS011;10667;51.056;3.732;2022-10-13T07:31:51;31.73;;;16.20;;
21018;SDS011;10667;51.056;3.732;2022-10-13T07:34:16;27.75;;;14.73;;
21018;SDS011;10667;51.056;3.732;2022-10-13T07:36:42;33.30;;;15.98;;
21018;SDS011;10667;51.056;3.732;2022-10-13T07:39:08;24.75;;;14.82;;
21018;SDS011;10667;51.056;3.732;2022-10-13T07:41:34;26.85;;;15.50;;
21018;SDS011;10667;51.056;3.732;2022-10-13T07:44:00;26.25;;;14.63;;
21018;SDS011;10667;51.056;3.732;2022-10-13T07:46:26;26.33;;;15.32;;
21018;SDS011;10667;51.056;3.732;2022-10-13T07:48:52;26.02;;;14.68;;
21018;SDS011;10667;51.056;3.732;2022-10-13T07:51:18;24.70;;;15.25;;
21018;SDS011;10667;51.056;3.732;2022-10-13T07:53:45;25.45;;;14.25;;
21018;SDS011;10667;51.056;3.732;2022-10-13T07:56:12;24.83;;;14.38;;
21018;SDS011;10667;51.056;3.732;2022-10-13T07:58:42;27.27;;;13.05;;
21018;SDS011;10667;51.056;3.732;2022-10-13T08:01:10;26.88;;;13.30;;
21018;SDS011;10667;51.056;3.732;2022-10-13T08:03:37;25.60;;;13.73;;
21018;SDS011;10667;51.056;3.732;2022-10-13T08:06:03;24.50;;;13.73;;
21018;SDS011;10667;51.056;3.732;2022-10-13T08:08:30;25.70;;;13.93;;
21018;SDS011;10667;51.056;3.732;2022-10-13T08:11:03;28.42;;;14.68;;
21018;SDS011;10667;51.056;3.732;2022-10-13T08:13:30;23.90;;;13.93;;
21018;SDS011;10667;51.056;3.732;2022-10-13T08:15:58;29.98;;;13.05;;
21018;SDS011;10667;51.056;3.732;2022-10-13T08:18:25;25.67;;;13.70;;
21018;SDS011;10667;51.056;3.732;2022-10-13T08:20:51;29.35;;;14.70;;
21018;SDS011;10667;51.056;3.732;2022-10-13T08:23:17;27.23;;;14.80;;
21018;SDS011;10667;51.056;3.732;2022-10-13T08:25:43;25.48;;;14.05;;
21018;SDS011;10667;51.056;3.732;2022-10-13T08:28:18;31.33;;;14.70;;
21018;SDS011;10667;51.056;3.732;2022-10-13T08:30:47;22.83;;;13.50;;
21018;SDS011;10667;51.056;3.732;2022-10-13T08:33:12;21.85;;;14.35;;
21018;SDS011;10667;51.056;3.732;2022-10-13T08:35:38;27.65;;;15.32;;
21018;SDS011;10667;51.056;3.732;2022-10-13T08:38:04;25.02;;;14.93;;
21018;SDS011;10667;51.056;3.732;2022-10-13T08:40:30;29.23;;;14.95;;
21018;SDS011;10667;51.056;3.732;2022-10-13T08:42:56;26.38;;;14.57;;
21018;SDS011;10667;51.056;3.732;2022-10-13T08:45:24;27.42;;;16.15;;
21018;SDS011;10667;51.056;3.732;2022-10-13T08:47:53;28.80;;;14.68;;
21018;SDS011;10667;51.056;3.732;2022-10-13T08:50:27;23.98;;;14.40;;
21018;SDS011;10667;51.056;3.732;2022-10-13T08:52:56;25.90;;;14.75;;
21018;SDS011;10667;51.056;3.732;2022-10-13T08:55:40;30.58;;;14.88;;
21018;SDS011;10667;51.056;3.732;2022-10-13T08:58:10;30.83;;;15.20;;
21018;SDS011;10667;51.056;3.732;2022-10-13T09:00:42;29.98;;;14.60;;
21018;SDS011;10667;51.056;3.732;2022-10-13T09:03:29;30.75;;;14.57;;
21018;SDS011;10667;51.056;3.732;2022-10-13T09:05:58;26.23;;;14.60;;
21018;SDS011;10667;51.056;3.732;2022-10-13T09:08:43;28.25;;;15.25;;
21018;SDS011;10667;51.056;3.732;2022-10-13T09:11:29;26.65;;;14.50;;
21018;SDS011;10667;51.056;3.732;2022-10-13T09:13:59;31.88;;;15.40;;
21018;SDS011;10667;51.056;3.732;2022-10-13T09:16:38;28.13;;;15.48;;
21018;SDS011;10667;51.056;3.732;2022-10-13T09:21:45;27.58;;;16.25;;
21018;SDS011;10667;51.056;3.732;2022-10-13T09:24:16;27.48;;;15.18;;
21018;SDS011;10667;51.056;3.732;2022-10-13T09:26:44;29.55;;;14.82;;
21018;SDS011;10667;51.056;3.732;2022-10-13T09:29:19;31.08;;;15.43;;
21018;SDS011;10667;51.056;3.732;2022-10-13T09:31:48;22.00;;;14.77;;
21018;SDS011;10667;51.056;3.732;2022-10-13T09:36:58;26.67;;;14.43;;
21018;SDS011;10667;51.056;3.732;2022-10-13T09:39:25;27.27;;;14.23;;
21018;SDS011;10667;51.056;3.732;2022-10-13T09:41:52;33.58;;;14.95;;
21018;SDS011;10667;51.056;3.732;2022-10-13T09:44:32;31.42;;;15.35;;
21018;SDS011;10667;51.056;3.732;2022-10-13T09:47:00;27.60;;;13.60;;
21018;SDS011;10667;51.056;3.732;2022-10-13T09:49:37;32.03;;;15.23;;
21018;SDS011;10667;51.056;3.732;2022-10-13T09:57:27;24.98;;;14.57;;
21018;SDS011;10667;51.056;3.732;2022-10-13T10:05:05;27.25;;;14.13;;
21018;SDS011;10667;51.056;3.732;2022-10-13T10:07:41;25.10;;;14.10;;
21018;SDS011;10667;51.056;3.732;2022-10-13T10:10:27;20.88;;;13.32;;
21018;SDS011;10667;51.056;3.732;2022-10-13T10:13:01;23.67;;;14.55;;
21018;SDS011;10667;51.056;3.732;2022-10-13T10:26:59;23.58;;;14.27;;
21018;SDS011;10667;51.056;3.732;2022-10-13T10:32:18;28.27;;;14.85;;
21018;SDS011;10667;51.056;3.732;2022-10-13T10:34:48;24.15;;;14.65;;
21018;SDS011;10667;51.056;3.732;2022-10-13T10:37:28;22.13;;;14.32;;
21018;SDS011;10667;51.056;3.732;2022-10-13T10:45:13;27.73;;;15.35;;
21018;SDS011;10667;51.056;3.732;2022-10-13T10:47:46;27.38;;;15.43;;
21018;SDS011;10667;51.056;3.732;2022-10-13T10:50:18;23.48;;;15.38;;
21018;SDS011;10667;51.056;3.732;2022-10-13T10:52:47;28.42;;;16.00;;
21018;SDS011;10667;51.056;3.732;2022-10-13T11:00:32;25.25;;;16.27;;
21018;SDS011;10667;51.056;3.732;2022-10-13T11:03:21;31.55;;;15.95;;
21018;SDS011;10667;51.056;3.732;2022-10-13T11:05:57;29.15;;;16.10;;
21018;SDS011;10667;51.056;3.732;2022-10-13T11:08:29;29.27;;;16.55;;
21018;SDS011;10667;51.056;3.732;2022-10-13T11:16:35;28.95;;;17.17;;
21018;SDS011;10667;51.056;3.732;2022-10-13T11:19:32;26.67;;;16.65;;
21018;SDS011;10667;51.056;3.732;2022-10-13T11:35:32;27.65;;;17.55;;
21018;SDS011;10667;51.056;3.732;2022-10-13T11:43:25;28.02;;;17.83;;
21018;SDS011;10667;51.056;3.732;2022-10-13T11:45:58;28.67;;;18.38;;
21018;SDS011;10667;51.056;3.732;2022-10-13T11:51:29;32.75;;;19.05;;
21018;SDS011;10667;51.056;3.732;2022-10-13T11:56:55;28.95;;;17.67;;
21018;SDS011;10667;51.056;3.732;2022-10-13T12:01:52;29.05;;;18.63;;
21018;SDS011;10667;51.056;3.732;2022-10-13T12:04:20;32.03;;;17.52;;
21018;SDS011;10667;51.056;3.732;2022-10-13T12:06:47;29.27;;;18.42;;
21018;SDS011;10667;51.056;3.732;2022-10-13T12:09:25;31.48;;;18.88;;
21018;SDS011;10667;51.056;3.732;2022-10-13T12:12:02;32.47;;;18.77;;
21018;SDS011;10667;51.056;3.732;2022-10-13T12:14:37;30.13;;;19.13;;
21018;SDS011;10667;51.056;3.732;2022-10-13T12:20:22;23.38;;;16.30;;
21018;SDS011;10667;51.056;3.732;2022-10-13T12:22:52;27.77;;;18.02;;
21018;SDS011;10667;51.056;3.732;2022-10-13T12:25:21;33.58;;;18.98;;
21018;SDS011;10667;51.056;3.732;2022-10-13T12:27:53;29.67;;;18.10;;
21018;SDS011;10667;51.056;3.732;2022-10-13T12:30:31;32.92;;;18.63;;
21018;SDS011;10667;51.056;3.732;2022-10-13T12:33:02;28.75;;;18.55;;
21018;SDS011;10667;51.056;3.732;2022-10-13T12:35:48;31.15;;;17.75;;
21018;SDS011;10667;51.056;3.732;2022-10-13T12:38:16;30.95;;;17.70;;
21018;SDS011;10667;51.056;3.732;2022-10-13T12:40:44;27.88;;;18.20;;
21018;SDS011;10667;51.056;3.732;2022-10-13T12:43:18;28.60;;;16.67;;
21018;SDS011;10667;51.056;3.732;2022-10-13T12:45:49;27.33;;;17.73;;
21018;SDS011;10667;51.056;3.732;2022-10-13T12:48:28;27.98;;;17.58;;
21018;SDS011;10667;51.056;3.732;2022-10-13T12:50:53;29.25;;;17.17;;
21018;SDS011;10667;51.056;3.732;2022-10-13T12:53:25;29.58;;;17.58;;
21018;SDS011;10667;51.056;3.732;2022-10-13T12:55:57;27.90;;;17.20;;
21018;SDS011;10667;51.056;3.732;2022-10-13T12:58:31;33.65;;;17.10;;
21018;SDS011;10667;51.056;3.732;2022-10-13T13:01:05;24.80;;;17.80;;
21018;SDS011;10667;51.056;3.732;2022-10-13T13:03:38;30.65;;;18.13;;
21018;SDS011;10667;51.056;3.732;2022-10-13T13:06:27;26.67;;;17.48;;
21018;SDS011;10667;51.056;3.732;2022-10-13T13:09:16;28.05;;;18.40;;
21018;SDS011;10667;51.056;3.732;2022-10-13T13:11:45;26.23;;;18.33;;
21018;SDS011;10667;51.056;3.732;2022-10-13T13:19:38;25.02;;;18.70;;
21018;SDS011;10667;51.056;3.732;2022-10-13T13:22:06;26.65;;;18.88;;
21018;SDS011;10667;51.056;3.732;2022-10-13T13:24:32;35.35;;;19.38;;
21018;SDS011;10667;51.056;3.732;2022-10-13T13:27:00;34.70;;;21.15;;
21018;SDS011;10667;51.056;3.732;2022-10-13T13:29:35;29.85;;;20.35;;
21018;SDS011;10667;51.056;3.732;2022-10-13T13:32:00;34.83;;;21.50;;
21018;SDS011;10667;51.056;3.732;2022-10-13T13:34:26;34.90;;;21.48;;
21018;SDS011;10667;51.056;3.732;2022-10-13T13:36:52;33.10;;;22.10;;
21018;SDS011;10667;51.056;3.732;2022-10-13T13:39:17;36.63;;;22.63;;
21018;SDS011;10667;51.056;3.732;2022-10-13T13:41:43;35.50;;;23.52;;
21018;SDS011;10667;51.056;3.732;2022-10-13T13:44:09;33.40;;;21.85;;
21018;SDS011;10667;51.056;3.732;2022-10-13T13:46:35;37.50;;;25.00;;
21018;SDS011;10667;51.056;3.732;2022-10-13T13:49:00;36.28;;;23.95;;
21018;SDS011;10667;51.056;3.732;2022-10-13T13:51:26;35.92;;;24.25;;
21018;SDS011;10667;51.056;3.732;2022-10-13T13:53:52;35.70;;;23.55;;
21018;SDS011;10667;51.056;3.732;2022-10-13T13:56:19;38.40;;;24.48;;
21018;SDS011;10667;51.056;3.732;2022-10-13T13:58:45;38.58;;;24.17;;
21018;SDS011;10667;51.056;3.732;2022-10-13T14:01:12;40.42;;;24.13;;
21018;SDS011;10667;51.056;3.732;2022-10-13T14:03:38;38.13;;;23.77;;
21018;SDS011;10667;51.056;3.732;2022-10-13T14:06:04;33.85;;;22.60;;
21018;SDS011;10667;51.056;3.732;2022-10-13T14:08:30;30.90;;;22.40;;
21018;SDS011;10667;51.056;3.732;2022-10-13T14:10:56;35.40;;;22.80;;
21018;SDS011;10667;51.056;3.732;2022-10-13T14:13:22;32.53;;;22.63;;
21018;SDS011;10667;51.056;3.732;2022-10-13T14:15:55;30.40;;;21.63;;
21018;SDS011;10667;51.056;3.732;2022-10-13T14:18:21;42.75;;;22.60;;
21018;SDS011;10667;51.056;3.732;2022-10-13T14:20:47;31.83;;;21.65;;
21018;SDS011;10667;51.056;3.732;2022-10-13T14:23:13;38.00;;;20.77;;
21018;SDS011;10667;51.056;3.732;2022-10-13T14:25:39;34.35;;;20.08;;
21018;SDS011;10667;51.056;3.732;2022-10-13T14:28:04;34.13;;;21.70;;
21018;SDS011;10667;51.056;3.732;2022-10-13T14:30:30;38.90;;;22.85;;
21018;SDS011;10667;51.056;3.732;2022-10-13T14:32:56;34.25;;;22.15;;
21018;SDS011;10667;51.056;3.732;2022-10-13T14:35:22;30.45;;;21.05;;
21018;SDS011;10667;51.056;3.732;2022-10-13T14:37:48;32.55;;;21.85;;
21018;SDS011;10667;51.056;3.732;2022-10-13T14:40:14;39.38;;;23.02;;
21018;SDS011;10667;51.056;3.732;2022-10-13T14:42:39;36.85;;;21.23;;
21018;SDS011;10667;51.056;3.732;2022-10-13T14:45:06;32.47;;;19.92;;
21018;SDS011;10667;51.056;3.732;2022-10-13T14:47:33;32.95;;;21.40;;
21018;SDS011;10667;51.056;3.732;2022-10-13T14:49:58;29.65;;;21.15;;
21018;SDS011;10667;51.056;3.732;2022-10-13T14:52:25;32.72;;;21.33;;
21018;SDS011;10667;51.056;3.732;2022-10-13T14:54:51;31.10;;;21.23;;
21018;SDS011;10667;51.056;3.732;2022-10-13T14:57:17;39.40;;;21.75;;
21018;SDS011;10667;51.056;3.732;2022-10-13T14:59:43;35.35;;;20.45;;
21018;SDS011;10667;51.056;3.732;2022-10-13T15:02:10;33.65;;;20.45;;
21018;SDS011;10667;51.056;3.732;2022-10-13T15:04:37;32.03;;;21.65;;
21018;SDS011;10667;51.056;3.732;2022-10-13T15:07:03;26.88;;;20.30;;
21018;SDS011;10667;51.056;3.732;2022-10-13T15:09:28;31.67;;;20.08;;
21018;SDS011;10667;51.056;3.732;2022-10-13T15:11:54;28.02;;;18.20;;
21018;SDS011;10667;51.056;3.732;2022-10-13T15:14:20;33.20;;;19.60;;
21018;SDS011;10667;51.056;3.732;2022-10-13T15:16:45;26.17;;;19.27;;
21018;SDS011;10667;51.056;3.732;2022-10-13T15:19:11;30.23;;;19.35;;
21018;SDS011;10667;51.056;3.732;2022-10-13T15:21:37;32.42;;;20.20;;
21018;SDS011;10667;51.056;3.732;2022-10-13T15:24:03;30.75;;;20.45;;
21018;SDS011;10667;51.056;3.732;2022-10-13T15:26:29;28.27;;;18.25;;
21018;SDS011;10667;51.056;3.732;2022-10-13T15:28:55;29.55;;;20.35;;
21018;SDS011;10667;51.056;3.732;2022-10-13T15:31:21;29.08;;;20.55;;
21018;SDS011;10667;51.056;3.732;2022-10-13T15:33:49;28.60;;;20.38;;
21018;SDS011;10667;51.056;3.732;2022-10-13T15:36:16;28.13;;;20.13;;
21018;SDS011;10667;51.056;3.732;2022-10-13T15:38:43;29.42;;;19.45;;
21018;SDS011;10667;51.056;3.732;2022-10-13T15:41:09;30.95;;;19.63;;
21018;SDS011;10667;51.056;3.732;2022-10-13T15:43:35;27.05;;;18.95;;
21018;SDS011;10667;51.056;3.732;2022-10-13T15:46:03;28.92;;;18.65;;
21018;SDS011;10667;51.056;3.732;2022-10-13T15:48:31;27.42;;;19.50;;
21018;SDS011;10667;51.056;3.732;2022-10-13T15:50:57;25.20;;;17.77;;
21018;SDS011;10667;51.056;3.732;2022-10-13T15:53:23;27.80;;;18.73;;
21018;SDS011;10667;51.056;3.732;2022-10-13T15:55:49;28.30;;;18.70;;
21018;SDS011;10667;51.056;3.732;2022-10-13T15:58:15;30.27;;;19.13;;
21018;SDS011;10667;51.056;3.732;2022-10-13T16:00:41;32.75;;;20.02;;
21018;SDS011;10667;51.056;3.732;2022-10-13T16:03:15;27.17;;;19.33;;
21018;SDS011;10667;51.056;3.732;2022-10-13T16:05:42;27.17;;;18.52;;
21018;SDS011;10667;51.056;3.732;2022-10-13T16:08:09;32.17;;;20.02;;
21018;SDS011;10667;51.056;3.732;2022-10-13T16:10:39;30.75;;;21.10;;
21018;SDS011;10667;51.056;3.732;2022-10-13T16:13:06;27.73;;;19.63;;
21018;SDS011;10667;51.056;3.732;2022-10-13T16:15:32;22.60;;;16.50;;
21018;SDS011;10667;51.056;3.732;2022-10-13T16:17:58;29.73;;;19.65;;